Time;durP1;ratioP1;P1;durP2;ratioP2;P2;SDS_P1;SDS_P2;PMS_P1;PMS_P2;Temp;Humidity;BMP_temperature;BMP_pressure;BME280_temperature;BME280_humidity;BME280_pressure;Samples;Min_cycle;Max_cycle;Signal;HPM_P1;HPM_P2
2022/07/16 00:02:13;;;;;;;;;3.00;3.00;;;;;25.57;31.24;101862.88;5097304;27;45390;-70
2022/07/16 00:04:39;;;;;;;;;3.00;3.00;;;;;25.51;30.84;101862.56;5078627;27;47729;-70
2022/07/16 00:07:04;;;;;;;;;2.00;1.00;;;;;25.46;31.11;101866.56;5096835;27;45777;-79
2022/07/16 00:09:29;;;;;;;;;2.00;1.00;;;;;25.47;31.11;101864.69;5096921;27;45497;-80
2022/07/16 00:11:55;;;;;;;;;1.00;1.00;;;;;25.48;30.84;101872.75;5097175;27;45401;-79
2022/07/16 00:14:20;;;;;;;;;1.00;1.00;;;;;25.43;30.94;101861.38;5096597;27;45519;-79
2022/07/16 00:16:45;;;;;;;;;0.33;0.33;;;;;25.33;31.43;101846.81;5095125;27;45540;-79
2022/07/16 00:19:18;;;;;;;;;2.67;1.00;;;;;25.35;31.71;101849.41;5090101;27;45539;-80
2022/07/16 00:21:46;;;;;;;;;2.00;1.00;;;;;25.43;31.04;101860.53;5077383;27;45545;-79
2022/07/16 00:24:12;;;;;;;;;3.67;1.33;;;;;25.39;31.33;101861.78;5095514;27;45498;-79
2022/07/16 00:26:37;;;;;;;;;2.00;2.00;;;;;25.33;31.58;101863.19;5077759;27;45507;-80
2022/07/16 00:29:03;;;;;;;;;1.00;1.00;;;;;25.34;31.46;101867.66;5078341;27;45404;-80
2022/07/16 00:31:28;;;;;;;;;1.33;1.33;;;;;25.32;31.39;101856.00;5096816;27;45302;-80
2022/07/16 00:33:54;;;;;;;;;3.33;1.00;;;;;25.29;31.07;101859.03;5096454;27;46972;-79
2022/07/16 00:36:19;;;;;;;;;2.33;2.33;;;;;25.25;31.22;101863.88;5096465;27;45352;-79
2022/07/16 00:38:44;;;;;;;;;2.00;2.00;;;;;25.22;31.87;101861.44;5077756;27;45636;-79
2022/07/16 00:41:19;;;;;;;;;3.00;3.00;;;;;25.15;31.50;101854.75;5096995;27;45349;-79
2022/07/16 00:43:49;;;;;;;;;1.33;1.33;;;;;25.16;31.83;101861.91;5096227;27;45375;-79
2022/07/16 00:46:15;;;;;;;;;3.67;1.00;;;;;25.10;32.03;101856.13;5077649;27;45481;-79
2022/07/16 00:48:41;;;;;;;;;1.00;1.00;;;;;25.14;32.05;101866.66;5096425;27;45605;-79
2022/07/16 00:51:07;;;;;;;;;1.00;1.00;;;;;25.05;32.06;101853.81;5096679;27;45405;-79
2022/07/16 00:53:35;;;;;;;;;1.67;1.67;;;;;25.09;31.98;101860.75;5095576;27;46150;-79
2022/07/16 00:56:02;;;;;;;;;1.00;1.00;;;;;25.06;31.81;101864.59;5096354;27;45428;-79
2022/07/16 00:58:27;;;;;;;;;1.67;1.67;;;;;25.03;31.72;101862.16;5095928;27;45512;-79
2022/07/16 01:00:52;;;;;;;;;2.00;2.00;;;;;25.01;31.86;101857.84;5096592;27;45592;-79
2022/07/16 01:03:18;;;;;;;;;1.00;1.00;;;;;24.94;32.12;101841.13;5096212;27;46094;-79
2022/07/16 01:05:45;;;;;;;;;0.67;0.67;;;;;24.85;32.15;101839.19;5096328;27;45474;-78
2022/07/16 01:08:11;;;;;;;;;2.00;1.00;;;;;24.88;31.93;101852.56;5095471;27;45729;-69
2022/07/16 01:10:39;;;;;;;;;2.00;2.00;;;;;24.88;32.52;101857.16;5096064;27;45521;-69
2022/07/16 01:13:07;;;;;;;;;3.33;2.00;;;;;24.86;32.53;101860.00;5095567;27;45425;-69
2022/07/16 01:15:32;;;;;;;;;2.00;2.00;;;;;24.84;32.30;101864.72;5095631;27;45729;-69
2022/07/16 01:17:58;;;;;;;;;2.00;2.00;;;;;24.85;32.75;101863.75;5077466;27;45533;-70
2022/07/16 01:20:24;;;;;;;;;2.67;2.67;;;;;24.74;32.83;101850.16;5096228;27;45386;-69
2022/07/16 01:22:53;;;;;;;;;1.67;1.67;;;;;24.80;32.54;101858.69;5095187;27;45415;-70
2022/07/16 01:25:20;;;;;;;;;2.00;2.00;;;;;24.79;32.74;101861.53;5095747;27;45393;-70
2022/07/16 01:27:45;;;;;;;;;1.00;1.00;;;;;24.77;32.31;101863.53;5095745;27;45395;-70
2022/07/16 01:30:11;;;;;;;;;1.67;1.67;;;;;24.74;32.50;101859.22;5095835;27;45500;-69
2022/07/16 01:32:38;;;;;;;;;2.67;2.67;;;;;24.63;32.57;101849.25;5095530;27;46349;-69
2022/07/16 01:35:04;;;;;;;;;1.00;1.00;;;;;24.70;32.85;101863.22;5098153;27;45489;-69
2022/07/16 01:37:29;;;;;;;;;4.00;3.00;;;;;24.68;33.22;101870.66;5099002;27;45509;-70
2022/07/16 01:39:55;;;;;;;;;2.00;2.00;;;;;24.62;33.27;101866.59;5099518;27;45643;-70
2022/07/16 01:42:20;;;;;;;;;5.00;2.33;;;;;24.43;33.41;101839.16;5098957;27;45599;-69
2022/07/16 01:44:46;;;;;;;;;2.67;2.67;;;;;24.48;33.30;101849.69;5084453;27;45494;-69
2022/07/16 01:47:13;;;;;;;;;3.33;2.33;;;;;24.40;33.55;101851.19;5099421;27;45622;-69
2022/07/16 01:49:39;;;;;;;;;4.00;3.00;;;;;24.40;33.87;101858.50;5099532;27;45465;-69
2022/07/16 01:52:13;;;;;;;;;3.00;3.00;;;;;24.39;33.99;101860.31;5080066;27;46177;-69
2022/07/16 01:54:45;;;;;;;;;3.33;2.67;;;;;24.42;34.10;101867.41;5098877;27;45464;-69
2022/07/16 01:57:11;;;;;;;;;3.33;3.33;;;;;24.39;34.17;101873.09;5098905;27;45416;-69
2022/07/16 01:59:37;;;;;;;;;3.67;3.67;;;;;24.40;33.89;101869.41;5099179;27;45463;-69
2022/07/16 02:02:03;;;;;;;;;5.33;2.00;;;;;24.41;33.72;101871.09;5098624;27;46403;-69
2022/07/16 02:04:28;;;;;;;;;3.00;3.00;;;;;24.40;33.72;101872.97;5098705;27;45457;-70
2022/07/16 02:06:53;;;;;;;;;3.67;3.67;;;;;24.38;33.55;101874.09;5098183;27;45535;-69
2022/07/16 02:09:19;;;;;;;;;2.00;2.00;;;;;24.34;34.07;101878.94;5099254;27;45532;-69
2022/07/16 02:11:44;;;;;;;;;4.67;4.67;;;;;24.30;34.20;101869.28;5098758;27;45569;-69
2022/07/16 02:14:10;;;;;;;;;3.33;3.33;;;;;24.24;34.41;101867.09;5098529;27;45636;-69
2022/07/16 02:16:35;;;;;;;;;3.00;3.00;;;;;24.20;34.42;101868.31;5098549;27;45490;-69
2022/07/16 02:19:00;;;;;;;;;5.67;2.33;;;;;24.14;34.63;101868.81;5080362;27;45831;-69
2022/07/16 02:21:26;;;;;;;;;2.33;2.33;;;;;24.11;34.17;101863.66;5097861;27;46160;-69
2022/07/16 02:23:52;;;;;;;;;3.33;3.33;;;;;24.09;34.38;101868.34;5098844;27;45362;-70
2022/07/16 02:26:17;;;;;;;;;3.33;3.33;;;;;24.00;34.70;101856.38;5080448;27;45562;-69
2022/07/16 02:28:42;;;;;;;;;3.67;3.67;;;;;24.04;35.07;101871.47;5098582;27;45526;-69
2022/07/16 02:31:08;;;;;;;;;4.33;2.67;;;;;24.00;34.85;101870.88;5098069;27;47085;-69
2022/07/16 02:33:33;;;;;;;;;4.00;3.00;;;;;23.99;34.53;101869.13;5098018;27;45625;-69
2022/07/16 02:35:59;;;;;;;;;2.67;2.33;;;;;23.99;34.61;101876.44;5062656;27;45696;-69
2022/07/16 02:38:24;;;;;;;;;2.00;2.00;;;;;24.00;35.08;101872.72;5098715;27;45455;-69
2022/07/16 02:40:50;;;;;;;;;2.33;2.33;;;;;23.98;34.64;101872.84;5098223;27;45887;-70
2022/07/16 02:43:15;;;;;;;;;3.00;3.00;;;;;23.96;35.00;101880.28;5098226;27;45410;-69
2022/07/16 02:45:42;;;;;;;;;3.67;2.00;;;;;23.87;34.93;101864.69;5097467;27;45409;-69
2022/07/16 02:48:08;;;;;;;;;2.00;2.00;;;;;23.92;35.05;101876.06;5098377;27;45393;-69
2022/07/16 02:50:34;;;;;;;;;4.00;3.67;;;;;23.82;34.73;101857.91;5097530;27;45460;-70
2022/07/16 02:52:59;;;;;;;;;2.67;2.67;;;;;23.92;35.06;101873.34;5098174;27;45502;-69
2022/07/16 02:55:26;;;;;;;;;3.00;3.00;;;;;23.92;35.02;101878.78;5097951;27;45369;-69
2022/07/16 02:57:52;;;;;;;;;4.00;3.00;;;;;23.87;35.14;101874.72;5098497;27;45682;-69
2022/07/16 03:00:18;;;;;;;;;4.00;2.67;;;;;23.84;34.84;101875.84;5097419;27;47115;-69
2022/07/16 03:02:44;;;;;;;;;2.67;1.00;;;;;23.71;35.19;101845.97;5097768;27;45519;-69
2022/07/16 03:05:10;;;;;;;;;2.00;2.00;;;;;23.77;35.22;101861.88;5078956;27;45476;-69
2022/07/16 03:07:35;;;;;;;;;2.00;2.00;;;;;23.79;35.31;101870.78;5079194;27;45594;-69
2022/07/16 03:10:01;;;;;;;;;2.00;2.00;;;;;23.72;34.74;101855.03;5097714;27;46069;-69
2022/07/16 03:12:26;;;;;;;;;4.00;4.00;;;;;23.77;35.78;101866.44;5097676;27;45509;-69
2022/07/16 03:14:52;;;;;;;;;2.33;1.33;;;;;23.73;35.09;101870.38;5097699;27;45524;-69
2022/07/16 03:17:17;;;;;;;;;2.00;2.00;;;;;23.71;35.49;101862.31;5097955;27;45485;-69
2022/07/16 03:19:42;;;;;;;;;4.33;2.67;;;;;23.72;34.90;101874.09;5097025;27;46210;-69
2022/07/16 03:22:09;;;;;;;;;3.00;3.00;;;;;23.72;35.44;101882.28;5097439;27;45520;-69
2022/07/16 03:24:34;;;;;;;;;2.33;2.33;;;;;23.70;35.49;101879.66;5097712;27;45564;-69
2022/07/16 03:26:59;;;;;;;;;3.67;2.33;;;;;23.62;35.10;101870.38;5097704;27;45466;-69
2022/07/16 03:29:25;;;;;;;;;4.00;3.67;;;;;23.60;35.32;101876.81;5097012;27;47233;-69
2022/07/16 03:31:50;;;;;;;;;3.00;2.00;;;;;23.57;35.68;101879.78;5097370;27;45592;-70
2022/07/16 03:34:16;;;;;;;;;4.00;4.00;;;;;23.56;35.79;101879.91;5097341;27;45413;-69
2022/07/16 03:36:41;;;;;;;;;3.67;3.67;;;;;23.44;35.71;101862.72;5097845;27;45485;-69
2022/07/16 03:39:07;;;;;;;;;3.67;3.33;;;;;23.50;35.94;101883.13;5097168;27;45586;-69
2022/07/16 03:41:34;;;;;;;;;5.00;3.00;;;;;23.44;36.39;101875.47;5097169;27;45757;-69
2022/07/16 03:44:02;;;;;;;;;3.00;3.00;;;;;23.39;36.46;101881.28;5097345;27;45414;-69
2022/07/16 03:46:27;;;;;;;;;4.00;4.00;;;;;23.32;36.60;101880.91;5097641;27;45550;-69
2022/07/16 03:48:53;;;;;;;;;3.00;3.00;;;;;23.27;36.74;101874.06;5078459;27;47462;-69
2022/07/16 03:51:18;;;;;;;;;3.00;3.00;;;;;23.23;36.24;101876.19;5097198;27;45446;-69
2022/07/16 03:53:44;;;;;;;;;4.00;4.00;;;;;23.18;36.57;101882.00;5097210;27;45397;-69
2022/07/16 03:56:09;;;;;;;;;4.00;4.00;;;;;23.11;37.28;101880.75;5097533;27;45400;-69
2022/07/16 03:58:35;;;;;;;;;3.00;3.00;;;;;23.10;36.69;101884.44;5095290;27;46219;-69
2022/07/16 04:01:00;;;;;;;;;3.33;3.33;;;;;23.08;36.69;101878.25;5096591;27;45514;-69
2022/07/16 04:03:26;;;;;;;;;3.67;3.67;;;;;23.10;36.76;101884.44;5078664;27;45458;-69
2022/07/16 04:05:52;;;;;;;;;2.00;2.00;;;;;23.08;37.15;101885.53;5097768;27;45386;-82
2022/07/16 04:08:18;;;;;;;;;4.00;2.67;;;;;22.85;36.90;101851.97;5096150;27;45465;-83
2022/07/16 04:10:43;;;;;;;;;4.00;2.67;;;;;23.09;36.83;101885.44;5078375;27;46212;-83
2022/07/16 04:13:08;;;;;;;;;1.00;1.00;;;;;23.12;36.49;101892.47;5078858;27;45501;-84
2022/07/16 04:15:34;;;;;;;;;6.00;3.00;;;;;23.02;36.58;101886.91;5096394;27;45439;-83
2022/07/16 04:17:59;;;;;;;;;4.33;2.33;;;;;23.09;36.58;101903.63;5094464;27;47003;-83
2022/07/16 04:20:24;;;;;;;;;3.00;3.00;;;;;23.10;36.70;101898.03;5095568;27;45447;-83
2022/07/16 04:22:50;;;;;;;;;2.67;2.67;;;;;22.97;37.13;101886.38;5095936;27;45564;-83
2022/07/16 04:25:15;;;;;;;;;4.00;4.00;;;;;22.96;37.86;101895.50;5094016;27;45504;-84
2022/07/16 04:27:41;;;;;;;;;4.00;3.00;;;;;22.91;37.44;101901.28;5089462;27;46984;-83
2022/07/16 04:30:09;;;;;;;;;3.00;3.00;;;;;23.01;37.25;101915.06;5095907;27;45471;-83
2022/07/16 04:32:38;;;;;;;;;3.00;3.00;;;;;22.93;37.35;101912.91;5095510;27;45441;-84
2022/07/16 04:35:04;;;;;;;;;6.67;2.00;;;;;22.84;37.76;101891.03;5095742;27;45650;-84
2022/07/16 04:37:29;;;;;;;;;1.00;1.00;;;;;22.79;37.77;101887.78;5093703;27;46230;-84
2022/07/16 04:39:54;;;;;;;;;2.00;2.00;;;;;22.96;37.74;101915.38;5085164;27;45556;-84
2022/07/16 04:42:20;;;;;;;;;3.00;3.00;;;;;22.95;37.33;101915.53;5095667;27;45457;-84
2022/07/16 04:44:45;;;;;;;;;1.00;1.00;;;;;22.75;37.27;101898.03;5095393;27;45522;-84
2022/07/16 04:47:11;;;;;;;;;3.33;3.33;;;;;22.86;38.00;101919.81;5080189;27;45472;-84
2022/07/16 04:49:36;;;;;;;;;3.33;3.33;;;;;22.82;37.77;101922.88;5094063;27;45528;-85
2022/07/16 04:52:02;;;;;;;;;5.00;5.00;;;;;22.84;37.76;101929.06;5095193;27;45434;-85
2022/07/16 04:54:27;;;;;;;;;3.33;3.33;;;;;22.83;38.24;101927.31;5096833;27;45362;-84
2022/07/16 04:56:53;;;;;;;;;4.67;2.67;;;;;22.84;38.26;101927.22;5093286;27;46526;-84
2022/07/16 04:59:18;;;;;;;;;3.67;3.33;;;;;22.83;38.11;101930.94;5092735;27;45710;-85
2022/07/16 05:01:44;;;;;;;;;3.33;2.00;;;;;22.83;38.06;101925.50;5094348;27;45372;-85
2022/07/16 05:04:09;;;;;;;;;3.00;3.00;;;;;22.74;38.03;101918.91;5096052;27;45433;-84
2022/07/16 05:06:34;;;;;;;;;5.33;2.67;;;;;22.75;38.51;101928.78;5095005;27;46341;-83
2022/07/16 05:09:01;;;;;;;;;4.00;3.00;;;;;22.76;38.40;101929.69;5094308;27;45353;-83
2022/07/16 05:11:27;;;;;;;;;3.67;3.67;;;;;22.76;38.69;101924.25;5098682;27;45399;-83
2022/07/16 05:13:53;;;;;;;;;5.67;4.00;;;;;22.75;38.61;101925.19;5098531;27;45549;-83
2022/07/16 05:16:19;;;;;;;;;4.00;4.00;;;;;22.73;38.46;101924.44;5096890;27;46106;-82
2022/07/16 05:18:45;;;;;;;;;2.67;2.67;;;;;22.47;38.91;101882.97;5099077;27;45586;-82
2022/07/16 05:21:10;;;;;;;;;3.67;3.67;;;;;22.71;38.51;101911.00;5098142;27;45533;-82
2022/07/16 05:23:36;;;;;;;;;4.00;3.00;;;;;22.72;39.17;101915.44;5097474;27;45482;-82
2022/07/16 05:26:01;;;;;;;;;2.67;2.67;;;;;22.74;39.15;101907.19;5096217;27;46410;-82
2022/07/16 05:28:26;;;;;;;;;5.33;4.33;;;;;22.76;38.48;101914.22;5079398;27;45524;-83
2022/07/16 05:30:52;;;;;;;;;5.00;5.00;;;;;22.72;38.25;101906.44;5096333;27;46805;-82
2022/07/16 05:33:17;;;;;;;;;3.00;3.00;;;;;22.77;38.50;101917.81;5097357;27;45590;-82
2022/07/16 05:35:43;;;;;;;;;3.33;3.33;;;;;22.75;38.43;101904.31;5096273;27;46434;-83
2022/07/16 05:38:08;;;;;;;;;4.00;3.33;;;;;22.74;38.96;101899.88;5096695;27;45499;-82
2022/07/16 05:40:33;;;;;;;;;4.33;4.33;;;;;22.76;38.51;101905.22;5094679;27;48826;-82
2022/07/16 05:42:59;;;;;;;;;4.00;4.00;;;;;22.85;39.13;101926.25;5079286;27;45586;-82
2022/07/16 05:45:24;;;;;;;;;4.67;4.67;;;;;22.89;38.70;101927.72;5098314;27;46977;-83
2022/07/16 05:47:50;;;;;;;;;3.00;2.33;;;;;22.93;39.18;101934.66;5097849;27;45574;-83
2022/07/16 05:50:15;;;;;;;;;5.00;4.33;;;;;22.94;38.72;101935.53;5095510;27;45488;-82
2022/07/16 05:52:41;;;;;;;;;3.33;3.33;;;;;22.93;38.78;101934.66;5096298;27;45516;-81
2022/07/16 05:55:07;;;;;;;;;3.67;2.67;;;;;23.00;38.65;101928.81;5097830;27;47153;-80
2022/07/16 05:57:32;;;;;;;;;3.33;3.33;;;;;23.09;38.43;101937.09;5098325;27;45680;-80
2022/07/16 05:59:57;;;;;;;;;4.00;4.00;;;;;23.05;38.41;101919.28;5098764;27;45450;-81
2022/07/16 06:02:23;;;;;;;;;6.33;4.67;;;;;23.20;39.22;101938.97;5098918;27;45456;-80
2022/07/16 06:04:48;;;;;;;;;4.00;4.00;;;;;23.06;38.80;101901.09;5096345;27;49878;-78
2022/07/16 06:07:13;;;;;;;;;3.00;3.00;;;;;23.29;38.68;101937.38;5097386;27;45934;-79
2022/07/16 06:09:39;;;;;;;;;5.67;4.00;;;;;23.36;39.43;101938.63;5099083;27;45464;-73
2022/07/16 06:12:04;;;;;;;;;6.00;5.67;;;;;23.41;39.23;101949.16;5078004;27;45431;-76
2022/07/16 06:14:30;;;;;;;;;5.00;3.67;;;;;23.44;38.45;101949.81;5095461;27;46273;-81
2022/07/16 06:16:55;;;;;;;;;5.00;4.00;;;;;23.46;38.64;101952.38;5092819;27;45659;-78
2022/07/16 06:19:20;;;;;;;;;6.00;6.00;;;;;23.56;38.35;101959.72;5092919;27;45524;-79
2022/07/16 06:21:46;;;;;;;;;2.67;2.67;;;;;23.56;38.14;101948.81;5092766;27;45617;-76
2022/07/16 06:24:11;;;;;;;;;4.00;4.00;;;;;23.57;38.16;101950.53;5095467;27;46144;-77
2022/07/16 06:26:36;;;;;;;;;4.33;4.33;;;;;23.68;38.10;101970.59;5096667;27;45393;-74
2022/07/16 06:29:02;;;;;;;;;4.00;4.00;;;;;23.70;38.44;101960.47;5080788;27;45564;-76
2022/07/16 06:31:27;;;;;;;;;4.00;2.33;;;;;23.76;38.25;101963.59;5094986;27;45516;-73
2022/07/16 06:33:53;;;;;;;;;4.00;2.33;;;;;23.80;37.71;101964.22;5095642;27;46018;-73
2022/07/16 06:36:18;;;;;;;;;34.33;26.67;;;;;23.87;38.21;101975.47;5097645;27;45425;-73
2022/07/16 06:38:43;;;;;;;;;5.00;5.00;;;;;23.79;38.16;101949.72;5095732;27;45436;-73
2022/07/16 06:41:09;;;;;;;;;3.33;3.33;;;;;23.97;37.77;101974.59;5095590;27;45378;-73
2022/07/16 06:43:34;;;;;;;;;3.00;3.00;;;;;24.01;38.07;101980.66;5076800;27;45547;-73
2022/07/16 06:45:59;;;;;;;;;4.00;4.00;;;;;24.07;37.35;101980.19;5095008;27;45540;-73
2022/07/16 06:48:25;;;;;;;;;8.33;3.67;;;;;24.07;37.78;101980.19;5093958;27;45749;-72
2022/07/16 06:50:50;;;;;;;;;4.67;3.00;;;;;24.12;37.16;101994.28;5096350;27;45577;-72
2022/07/16 06:53:15;;;;;;;;;5.33;3.00;;;;;24.19;37.83;101986.50;5094770;27;45503;-74
2022/07/16 06:55:41;;;;;;;;;3.67;1.00;;;;;24.27;37.64;101997.59;5080171;27;45505;-73
2022/07/16 06:58:06;;;;;;;;;5.00;5.00;;;;;24.15;36.95;101961.34;5096221;27;45345;-73
2022/07/16 07:00:32;;;;;;;;;3.67;3.67;;;;;24.36;36.69;101999.59;5095486;27;45442;-73
2022/07/16 07:02:57;;;;;;;;;4.00;4.00;;;;;24.43;37.20;101994.50;5095980;27;47183;-73
2022/07/16 07:05:22;;;;;;;;;3.67;3.67;;;;;24.48;36.90;102000.47;5094861;27;45362;-73
2022/07/16 07:07:48;;;;;;;;;3.00;3.00;;;;;24.55;36.24;102001.69;5096132;27;45750;-73
2022/07/16 07:10:13;;;;;;;;;6.67;5.00;;;;;24.63;36.18;102010.09;5093914;27;45610;-73
2022/07/16 07:12:39;;;;;;;;;2.33;2.33;;;;;24.69;36.47;102000.53;5095838;27;46779;-73
2022/07/16 07:15:05;;;;;;;;;4.00;3.00;;;;;24.75;36.00;102000.03;5096125;27;45514;-73
2022/07/16 07:17:30;;;;;;;;;5.33;4.33;;;;;24.82;35.82;101997.66;5095161;27;45512;-73
2022/07/16 07:19:56;;;;;;;;;2.00;2.00;;;;;24.77;35.63;101978.94;5082150;27;45602;-73
2022/07/16 07:22:21;;;;;;;;;4.00;3.00;;;;;24.96;35.84;101993.72;5076682;27;45812;-73
2022/07/16 07:24:46;;;;;;;;;4.67;4.33;;;;;24.93;35.69;101977.63;5096080;27;45547;-73
2022/07/16 07:27:12;;;;;;;;;5.33;4.33;;;;;25.07;35.10;101996.41;5095342;27;45865;-73
2022/07/16 07:29:37;;;;;;;;;4.00;4.00;;;;;25.14;35.20;101996.75;5091121;27;45562;-74
2022/07/16 07:32:03;;;;;;;;;4.00;4.00;;;;;25.20;35.12;101999.88;5092430;27;47478;-73
2022/07/16 07:34:29;;;;;;;;;4.00;3.33;;;;;25.23;35.03;102005.03;5092464;27;45630;-73
2022/07/16 07:36:55;;;;;;;;;3.00;3.00;;;;;25.28;35.12;102008.25;5079315;27;45509;-73
2022/07/16 07:39:20;;;;;;;;;2.00;2.00;;;;;25.33;34.75;102007.84;5090100;27;45581;-73
2022/07/16 07:41:46;;;;;;;;;2.67;2.67;;;;;25.34;35.54;102000.53;5087739;27;46218;-72
2022/07/16 07:44:11;;;;;;;;;3.00;3.00;;;;;25.46;34.79;102005.78;5065946;27;45421;-75
2022/07/16 07:46:36;;;;;;;;;3.00;2.00;;;;;25.52;34.36;102003.53;5096019;27;45574;-73
2022/07/16 07:49:03;;;;;;;;;6.00;4.00;;;;;25.55;35.21;101995.09;5076191;27;45627;-76
2022/07/16 07:51:28;;;;;;;;;4.50;3.00;;;;;25.63;35.29;101998.84;5095346;27;47259;-74
2022/07/16 07:53:54;;;;;;;;;4.00;3.00;;;;;25.69;34.22;101997.47;5093715;27;45477;-74
2022/07/16 07:56:19;;;;;;;;;4.33;3.33;;;;;25.68;34.50;101993.88;5094713;27;45516;-75
2022/07/16 07:58:44;;;;;;;;;4.00;2.00;;;;;25.72;34.11;101983.53;5077621;27;45492;-76
2022/07/16 08:01:10;;;;;;;;;6.00;4.00;;;;;25.86;33.92;101996.84;5077826;27;47200;-80
2022/07/16 08:03:35;;;;;;;;;2.00;2.00;;;;;25.91;34.20;101999.19;5092683;27;45611;-80
2022/07/16 08:06:01;;;;;;;;;3.00;3.00;;;;;25.88;33.59;101986.66;5073821;27;45711;-79
2022/07/16 08:08:26;;;;;;;;;2.67;2.67;;;;;25.95;33.68;101989.72;5096988;27;45593;-79
2022/07/16 08:10:51;;;;;;;;;3.33;3.33;;;;;26.08;33.73;102001.28;5085006;27;46003;-79
2022/07/16 08:13:17;;;;;;;;;2.00;2.00;;;;;26.15;33.00;102004.28;5090597;27;45516;-79
2022/07/16 08:15:43;;;;;;;;;2.00;2.00;;;;;26.13;33.32;101994.50;5092070;27;45632;-81
2022/07/16 08:18:09;;;;;;;;;3.00;3.00;;;;;26.28;33.33;102001.34;5096031;27;45372;-80
2022/07/16 08:20:34;;;;;;;;;3.00;2.50;;;;;26.35;33.19;102007.13;5092717;27;47015;-78
2022/07/16 08:23:00;;;;;;;;;3.00;3.00;;;;;26.35;33.20;101996.19;5092013;27;45496;-77
2022/07/16 08:28:09;;;;;;;;;3.00;3.00;;;;;26.44;32.78;101992.59;5087228;27;45392;-80
2022/07/16 08:30:35;;;;;;;;;2.00;2.00;;;;;26.60;32.89;102003.91;5077446;27;45866;-80
2022/07/16 08:33:00;;;;;;;;;4.00;2.00;;;;;26.68;32.76;102006.78;5094366;27;45674;-81
2022/07/16 08:35:26;;;;;;;;;2.00;2.00;;;;;26.74;32.82;102003.50;5093152;27;45472;-80
2022/07/16 08:37:51;;;;;;;;;2.00;2.00;;;;;26.82;32.85;101996.44;5094558;27;45458;-80
2022/07/16 08:40:20;;;;;;;;;2.00;2.00;;;;;26.92;32.57;101997.28;5093186;27;45634;-81
2022/07/16 08:42:46;;;;;;;;;3.00;3.00;;;;;26.98;32.51;101998.63;5091606;27;45508;-76
2022/07/16 08:45:14;;;;;;;;;1.00;1.00;;;;;27.01;32.33;101988.22;5092079;27;45604;-73
2022/07/16 08:47:39;;;;;;;;;3.33;3.33;;;;;27.26;32.84;101997.75;5095595;27;45430;-72
2022/07/16 08:50:14;;;;;;;;;40.00;32.67;;;;;27.51;32.58;102000.88;5069253;27;46204;-71
2022/07/16 08:52:43;;;;;;;;;12.00;12.00;;;;;28.23;32.12;101993.88;5086078;27;45596;-70
2022/07/16 08:55:10;;;;;;;;;178.33;165.00;;;;;29.66;29.74;102010.41;5092822;27;45607;-71
2022/07/16 08:57:41;;;;;;;;;5.00;4.00;;;;;31.95;26.97;101996.25;5082011;27;45916;-71
2022/07/16 09:00:12;;;;;;;;;11.00;9.67;;;;;33.77;24.90;101992.09;5074127;27;48758;-71
2022/07/16 09:02:38;;;;;;;;;11.00;10.00;;;;;36.80;22.13;101999.03;5090919;27;45374;-71
2022/07/16 09:05:04;;;;;;;;;6.00;6.00;;;;;39.50;19.23;101996.63;5095228;27;45532;-71
2022/07/16 09:07:30;;;;;;;;;6.00;4.67;;;;;41.40;16.71;102004.84;5094540;27;45629;-71
2022/07/16 09:09:55;;;;;;;;;6.00;6.00;;;;;42.76;16.18;102002.50;5089881;27;47046;-72
2022/07/16 09:12:37;;;;;;;;;4.00;4.00;;;;;43.91;14.32;102016.19;5087177;27;45455;-72
2022/07/16 09:15:25;;;;;;;;;0.33;0.33;;;;;45.05;14.29;102005.97;5088102;27;45628;-72
2022/07/16 09:18:07;;;;;;;;;8.00;8.00;;;;;46.09;13.39;102014.00;5062050;27;45624;-70
2022/07/16 09:20:32;;;;;;;;;5.67;5.67;;;;;46.91;12.81;101997.31;5088110;27;45726;-73
2022/07/16 09:22:57;;;;;;;;;14.67;14.67;;;;;47.66;12.56;102019.28;5089549;27;45424;-71
2022/07/16 09:25:23;;;;;;;;;5.00;5.00;;;;;48.21;11.79;102023.06;5073722;27;46438;-72
2022/07/16 09:27:57;;;;;;;;;19.33;18.00;;;;;48.85;11.65;102023.25;5092852;27;45874;-73
2022/07/16 09:30:23;;;;;;;;;6.00;6.00;;;;;49.51;11.08;102019.81;5075441;27;48310;-73
2022/07/16 09:32:49;;;;;;;;;6.00;6.00;;;;;50.04;10.60;102021.78;5094069;27;45557;-74
2022/07/16 09:35:16;;;;;;;;;17.33;16.00;;;;;50.46;10.69;102020.06;5092628;27;45576;-75
2022/07/16 09:37:52;;;;;;;;;9.00;9.00;;;;;50.78;10.56;102024.16;5092440;27;45481;-72
2022/07/16 09:40:46;;;;;;;;;6.33;3.33;;;;;51.14;9.44;102023.53;5093163;27;47261;-74
2022/07/16 09:43:11;;;;;;;;;5.67;5.67;;;;;51.40;9.64;102013.44;5093735;27;45343;-74
2022/07/16 09:45:39;;;;;;;;;12.00;11.00;;;;;51.81;9.46;102020.31;5094293;27;45663;-76
2022/07/16 09:48:26;;;;;;;;;9.67;8.33;;;;;52.02;9.41;102017.84;5089514;27;45592;-76
2022/07/16 09:50:53;;;;;;;;;11.00;10.00;;;;;52.31;9.01;102026.03;5092916;27;46285;-73
2022/07/16 09:53:25;;;;;;;;;8.00;8.00;;;;;52.75;8.76;102024.47;5092378;27;45496;-73
2022/07/16 09:56:07;;;;;;;;;7.33;5.00;;;;;52.86;8.77;102022.19;5096351;27;45457;-73
2022/07/16 09:58:34;;;;;;;;;3.00;3.00;;;;;52.97;8.39;102035.03;5098199;27;45588;-73
2022/07/16 10:01:02;;;;;;;;;3.67;2.00;;;;;52.70;8.22;102030.25;5077611;27;46731;-75
2022/07/16 10:03:28;;;;;;;;;56.50;44.50;;;;;52.82;10.12;102036.22;5097136;27;45525;-78
2022/07/16 10:05:54;;;;;;;;;44.75;35.00;;;;;52.79;8.97;102038.91;5097286;27;45685;-75
2022/07/16 10:08:20;;;;;;;;;20.33;20.33;;;;;52.59;9.36;102028.81;5079087;27;45453;-85
2022/07/16 10:10:46;;;;;;;;;33.75;28.50;;;;;52.64;10.39;102038.09;5096411;27;46382;-79
2022/07/16 10:13:13;;;;;;;;;22.67;20.00;;;;;52.48;8.54;102033.94;5097020;27;45539;-83
2022/07/16 10:15:39;;;;;;;;;16.33;15.00;;;;;52.32;9.25;102031.41;5077276;27;45560;-80
2022/07/16 10:18:31;;;;;;;;;18.00;16.00;;;;;51.54;10.24;102029.63;5095760;27;45589;-91
2022/07/16 10:21:06;;;;;;;;;22.00;18.67;;;;;51.48;10.89;102017.53;5094699;27;45951;-91
2022/07/16 10:23:32;;;;;;;;;19.00;19.00;;;;;51.38;11.10;102032.78;5091686;27;45442;-88
2022/07/16 10:26:00;;;;;;;;;15.00;14.67;;;;;50.77;10.48;102034.69;5096315;27;45519;-89
2022/07/16 10:28:48;;;;;;;;;8.00;8.00;;;;;49.71;11.03;102030.09;5077491;27;45566;-83
2022/07/16 10:31:32;;;;;;;;;2.00;2.00;;;;;49.07;10.53;102034.13;5081224;27;45592;-81
2022/07/16 10:34:12;;;;;;;;;2.00;2.00;;;;;48.62;11.44;102031.34;5096729;27;45922;-83
2022/07/16 10:36:54;;;;;;;;;16.50;14.00;;;;;48.01;10.34;102014.66;5096713;27;45409;-84
2022/07/16 10:39:22;;;;;;;;;43.50;32.50;;;;;47.30;13.28;102014.53;5082289;27;45663;-79
2022/07/16 10:41:56;;;;;;;;;26.75;24.25;;;;;46.95;14.04;101999.28;5088060;27;45761;-79
2022/07/16 10:44:43;;;;;;;;;27.33;23.00;;;;;46.30;14.32;101998.00;5083992;27;45429;-79
2022/07/16 10:47:09;;;;;;;;;16.33;14.67;;;;;45.91;14.83;102006.84;5090600;27;45603;-78
2022/07/16 10:49:35;;;;;;;;;7.33;6.33;;;;;45.70;13.24;101986.16;5089146;27;46238;-79
2022/07/16 10:52:14;;;;;;;;;22.67;21.33;;;;;45.52;14.78;101995.94;5075526;27;46175;-81
2022/07/16 10:54:41;;;;;;;;;7.67;7.67;;;;;45.02;13.01;101972.72;5097862;27;45577;-85
2022/07/16 10:57:11;;;;;;;;;17.00;17.00;;;;;44.51;15.48;101974.19;5097895;27;45755;-81
2022/07/16 10:59:39;;;;;;;;;12.00;9.00;;;;;43.88;15.02;101997.03;5093235;27;45599;-78
2022/07/16 11:02:07;;;;;;;;;9.33;8.67;;;;;43.25;15.15;101987.94;5091934;27;45481;-85
2022/07/16 11:04:39;;;;;;;;;5.00;4.00;;;;;42.60;15.24;101992.09;5093803;27;45820;-78
2022/07/16 11:07:12;;;;;;;;;7.67;7.00;;;;;41.95;16.01;101990.44;5090721;27;45574;-81
2022/07/16 11:09:40;;;;;;;;;4.33;4.00;;;;;40.99;16.90;101989.81;5093303;27;45699;-76
2022/07/16 11:12:15;;;;;;;;;4.00;4.00;;;;;40.29;17.16;101997.69;5093741;27;46433;-77
2022/07/16 11:14:43;;;;;;;;;2.00;2.00;;;;;39.86;16.27;102000.56;5095254;27;45474;-73
2022/07/16 11:17:09;;;;;;;;;2.00;2.00;;;;;39.43;16.89;101988.31;5095533;27;45741;-73
2022/07/16 11:19:43;;;;;;;;;6.33;5.00;;;;;38.93;17.85;101984.66;5091685;27;45538;-74
2022/07/16 11:22:10;;;;;;;;;3.67;3.67;;;;;38.43;18.53;101965.84;5091266;27;47162;-73
2022/07/16 11:24:47;;;;;;;;;4.00;4.00;;;;;37.98;19.34;101972.22;5094478;27;45423;-72
2022/07/16 11:27:13;;;;;;;;;5.00;4.00;;;;;37.39;18.91;101989.88;5092380;27;45541;-81